Dart — OUOV2 — position and weather

sailwx.info

Track history (hours):
 
Tides and Currents Weather Stations Pressure Air Temp Water Temp Dewpoint Dewpoint Depression Visibility Wind Speed Wind Dir Waves Ship Positions

Dart

Last reported at 2017-Oct-17 02:00 UTC. Time now 2017-Oct-17 02:11 UTC.
Position N 62°44' E 006°31'.

Length 66 m; draft 4.5 m.

Type: Tanker. MMSI: 219416000.

Date/timePositionNaut miles runAvg speedWind from/ knotsBaromVisibWave heightAir tempDewpointWater temp
2017-Oct-17 02:00N 62°44' E 006°31'5 9.4
2017-Oct-17 01:29N 62°39' E 006°25'4 8.7
2017-Oct-17 01:00N 62°37' E 006°18'5 9.1
2017-Oct-17 00:30N 62°34' E 006°11'5 9.1
2017-Oct-17 00:00N 62°29' E 006°07'4 8.4
2017-Oct-16 23:30N 62°25' E 006°03'5 9.8
2017-Oct-16 23:00N 62°21' E 006°08'5 9.5
2017-Oct-16 22:29N 62°17' E 006°01'510.3
2017-Oct-16 22:00N 62°13' E 005°54'5 9.9
2017-Oct-16 21:30N 62°12' E 005°45'5 9.5
2017-Oct-16 21:00N 62°11' E 005°35'4 8.4
2017-Oct-16 20:30N 62°11' E 005°26'4 7.7
2017-Oct-16 20:00N 62°12' E 005°18'4 8.3
2017-Oct-16 19:30N 62°13' E 005°09'4 8.2
2017-Oct-16 19:00N 62°10' E 005°04'4 8.8
2017-Oct-16 18:30N 62°06' E 005°06'5 9.2
2017-Oct-16 18:00N 62°01' E 005°09'5 9.5
2017-Oct-16 17:30N 61°57' E 005°08'4 8.2
2017-Oct-16 17:00N 61°53' E 005°11'3 7.1
2017-Oct-16 16:30N 61°50' E 005°15'5 9.7
2017-Oct-16 16:00N 61°47' E 005°06'5 9.8
2017-Oct-16 15:30N 61°44' E 004°58'5 9.8
2017-Oct-16 14:59N 61°39' E 004°59'5 9.2
2017-Oct-16 14:30N 61°34' E 004°58'9 9.2
2017-Oct-16 13:30N 61°25' E 004°58'5 9.8
2017-Oct-16 13:00N 61°21' E 005°02'4 7.1
2017-Oct-16 12:30N 61°18' E 004°59'4 7.6
2017-Oct-16 12:00N 61°14' E 004°56'5 9.4
2017-Oct-16 11:30N 61°10' E 005°01'5 9.4
2017-Oct-16 11:00N 61°05' E 005°01'510.1
2017-Oct-16 10:30N 61°01' E 004°55'5 9.9
2017-Oct-16 10:00N 60°56' E 004°57'5 9.1
2017-Oct-16 09:30N 60°52' E 004°57'5 9.3
2017-Oct-16 09:00N 60°49' E 005°05'1 2.1
2017-Oct-16 08:28N 60°47' E 005°04'0 0.0
2017-Oct-16 07:58N 60°47' E 005°04'0 0.0
2017-Oct-16 07:28N 60°47' E 005°04'0 0.0
2017-Oct-16 06:58N 60°47' E 005°04'0 0.0
2017-Oct-16 06:28N 60°47' E 005°04'0 0.0
2017-Oct-16 05:58N 60°47' E 005°04'0 0.0
2017-Oct-16 05:28N 60°47' E 005°04'2 3.8
2017-Oct-16 04:59N 60°49' E 005°04'5 9.5
2017-Oct-16 04:30N 60°51' E 004°54'5 9.3
2017-Oct-16 04:00N 60°50' E 004°45'4 8.3
2017-Oct-16 03:30N 60°46' E 004°47'5 9.1
2017-Oct-16 03:00N 60°42' E 004°50'5 9.1
2017-Oct-16 02:30N 60°37' E 004°53'4 8.9
2017-Oct-16 02:00N 60°33' E 004°56'4 8.4
2017-Oct-16 01:29N 60°29' E 004°59'4 8.4
2017-Oct-16 01:00N 60°26' E 005°03'4 7.9
2017-Oct-16 00:30N 60°23' E 005°10'4 8.3
2017-Oct-16 00:00N 60°19' E 005°12'4 8.4
2017-Oct-15 23:30N 60°15' E 005°10'4 7.5
2017-Oct-15 23:00N 60°12' E 005°13'4 7.6
2017-Oct-15 22:30N 60°08' E 005°17'4 8.0
2017-Oct-15 22:00N 60°05' E 005°20'5 9.3
2017-Oct-15 21:31N 60°00' E 005°21'4 8.5
2017-Oct-15 21:00N 59°57' E 005°27'4 8.6
2017-Oct-15 20:30N 59°54' E 005°32'4 9.0
2017-Oct-15 20:00N 59°49' E 005°33'4 8.2
2017-Oct-15 19:30N 59°45' E 005°32'4 8.7
2017-Oct-15 19:00N 59°42' E 005°26'4 8.5
2017-Oct-15 18:30N 59°39' E 005°20'5 9.3
2017-Oct-15 18:00N 59°35' E 005°15'4 9.0
2017-Oct-15 17:30N 59°31' E 005°13'5 9.4
2017-Oct-15 17:00N 59°26' E 005°14'4 8.2
2017-Oct-15 16:30N 59°22' E 005°18'5 8.9
2017-Oct-15 16:00N 59°18' E 005°20'1 2.3
2017-Oct-15 15:29N 59°17' E 005°19'0 0.0
2017-Oct-15 14:59N 59°17' E 005°19'0 0.0
2017-Oct-15 13:59N 59°17' E 005°19'0 0.0
2017-Oct-15 13:29N 59°17' E 005°19'0 0.0
2017-Oct-15 12:59N 59°17' E 005°19'0 0.0
2017-Oct-15 12:29N 59°17' E 005°19'0 0.0
2017-Oct-15 11:59N 59°17' E 005°19'0 0.0
2017-Oct-15 11:29N 59°17' E 005°19'0 0.0
2017-Oct-15 10:59N 59°17' E 005°19'0 0.0
2017-Oct-15 10:29N 59°17' E 005°19'0 0.0
2017-Oct-15 09:59N 59°17' E 005°19'0 0.0
2017-Oct-15 09:29N 59°17' E 005°19'0 0.0
2017-Oct-15 08:59N 59°17' E 005°19'0 0.0
2017-Oct-15 08:29N 59°17' E 005°19'0 0.0
2017-Oct-15 07:59N 59°17' E 005°19'0 0.0
2017-Oct-15 07:29N 59°17' E 005°19'0 0.0
2017-Oct-15 06:59N 59°17' E 005°19'0 0.0
2017-Oct-15 06:29N 59°17' E 005°19'0 0.0
2017-Oct-15 05:59N 59°17' E 005°19'0 0.0
2017-Oct-15 05:29N 59°17' E 005°19'0 0.0
2017-Oct-15 04:59N 59°17' E 005°19'0 0.0
2017-Oct-15 04:29N 59°17' E 005°19'0 0.0
2017-Oct-15 03:59N 59°17' E 005°19'0 0.0
2017-Oct-15 03:29N 59°17' E 005°19'0 0.0
2017-Oct-15 02:59N 59°17' E 005°19'0 0.0
2017-Oct-15 02:29N 59°17' E 005°19'0 0.0
2017-Oct-15 01:59N 59°17' E 005°19'0 0.0
2017-Oct-15 01:29N 59°17' E 005°19'0 0.0
2017-Oct-15 00:59N 59°17' E 005°19'0 0.0
2017-Oct-15 00:29N 59°17' E 005°19'0 0.0
2017-Oct-14 23:59N 59°17' E 005°19'0 0.0
2017-Oct-14 23:29N 59°17' E 005°19'0 0.0
2017-Oct-14 22:59N 59°17' E 005°19'0 0.0
2017-Oct-14 22:29N 59°17' E 005°19'0 0.0
2017-Oct-14 21:59N 59°17' E 005°19'0 0.0
2017-Oct-14 21:29N 59°17' E 005°19'0 0.0
2017-Oct-14 20:59N 59°17' E 005°19'0 0.0
2017-Oct-14 20:29N 59°17' E 005°19'0 0.0
2017-Oct-14 19:59N 59°17' E 005°19'0 0.0
2017-Oct-14 19:29N 59°17' E 005°19'0 0.0
2017-Oct-14 18:59N 59°17' E 005°19'0 0.0
2017-Oct-14 18:29N 59°17' E 005°19'0 0.0
2017-Oct-14 17:59N 59°17' E 005°19'0 0.0
2017-Oct-14 17:29N 59°17' E 005°19'0 0.0
2017-Oct-14 16:59N 59°17' E 005°19'0 0.0
2017-Oct-14 16:29N 59°17' E 005°19'0 0.0
2017-Oct-14 15:59N 59°17' E 005°19'0 0.0
2017-Oct-14 15:29N 59°17' E 005°19'0 0.0
2017-Oct-14 14:59N 59°17' E 005°19'0 0.0
2017-Oct-14 14:29N 59°17' E 005°19'0 0.0
2017-Oct-14 13:59N 59°17' E 005°19'0 0.0
2017-Oct-14 13:29N 59°17' E 005°19'0 0.0
2017-Oct-14 12:59N 59°17' E 005°19'0 0.0
2017-Oct-14 12:29N 59°17' E 005°19'0 0.0
2017-Oct-14 11:59N 59°17' E 005°19'0 0.0
2017-Oct-14 11:29N 59°17' E 005°19'0 0.0
2017-Oct-14 10:59N 59°17' E 005°19'0 0.0
2017-Oct-14 10:29N 59°17' E 005°19'0 0.0
2017-Oct-14 09:59N 59°17' E 005°19'0 0.0
2017-Oct-14 09:29N 59°17' E 005°19'0 0.0
2017-Oct-14 08:59N 59°17' E 005°19'1 1.6
2017-Oct-14 08:30N 59°17' E 005°20'5 9.7
2017-Oct-14 08:00N 59°12' E 005°21'4 8.1
2017-Oct-14 07:30N 59°08' E 005°24'4 8.2
2017-Oct-14 07:00N 59°06' E 005°31'5 9.1
2017-Oct-14 06:30N 59°02' E 005°33'5 9.3
2017-Oct-14 06:00N 58°57' E 005°33'2 4.2
2017-Oct-14 05:29N 58°55' E 005°36'0 0.0
2017-Oct-14 04:59N 58°55' E 005°36'0 0.0
2017-Oct-14 04:29N 58°55' E 005°36'0 0.0
2017-Oct-14 03:59N 58°55' E 005°36'0 0.0
2017-Oct-14 03:26N 58°55' E 005°36'0 0.9
2017-Oct-14 03:00N 58°56' E 005°35'4 7.6
2017-Oct-14 02:30N 58°59' E 005°33'4 7.2
2017-Oct-14 02:00N 59°03' E 005°35'4 7.5
2017-Oct-14 01:30N 58°60' E 005°40'0 0.0
2017-Oct-14 00:58N 58°60' E 005°40'0 0.0
2017-Oct-14 00:28N 58°60' E 005°40'0 0.0
2017-Oct-13 23:58N 58°60' E 005°40'0 0.0
2017-Oct-13 23:28N 58°60' E 005°40'0 0.0
2017-Oct-13 22:58N 58°60' E 005°40'0 0.0
2017-Oct-13 22:28N 58°60' E 005°40'0 0.0
2017-Oct-13 21:58N 58°60' E 005°40'0 0.0
2017-Oct-13 21:28N 58°60' E 005°40'0 0.0
2017-Oct-13 20:58N 58°60' E 005°40'0 0.0
2017-Oct-13 20:28N 58°60' E 005°40'0 0.0
2017-Oct-13 19:58N 58°60' E 005°40'0 0.0
2017-Oct-13 19:28N 58°60' E 005°40'0 0.0
2017-Oct-13 18:58N 58°60' E 005°40'0 0.0
2017-Oct-13 18:29N 58°60' E 005°40'3 6.8
2017-Oct-13 18:00N 59°02' E 005°36'5 9.1
2017-Oct-13 17:30N 59°06' E 005°31'4 9.0
2017-Oct-13 17:01N 59°11' E 005°30'5 9.0
2017-Oct-13 16:30N 59°15' E 005°26'4 7.2
2017-Oct-13 16:00N 59°17' E 005°20'5 9.1
2017-Oct-13 15:30N 59°21' E 005°19'4 8.1
2017-Oct-13 15:00N 59°25' E 005°14'0 0.0
2017-Oct-13 14:29N 59°25' E 005°14'0 0.0
2017-Oct-13 13:59N 59°25' E 005°14'0 0.0
2017-Oct-13 13:29N 59°25' E 005°14'0 0.0
2017-Oct-13 12:59N 59°25' E 005°14'0 0.0
2017-Oct-13 12:29N 59°25' E 005°14'0 0.0
2017-Oct-13 11:59N 59°25' E 005°14'0 0.0
2017-Oct-13 11:29N 59°25' E 005°14'0 0.0
2017-Oct-13 10:59N 59°25' E 005°14'0 0.0
2017-Oct-13 10:29N 59°25' E 005°14'0 0.0
2017-Oct-13 09:59N 59°25' E 005°14'2 3.6
2017-Oct-13 09:30N 59°26' E 005°14'4 7.3
2017-Oct-13 09:00N 59°30' E 005°13'4 7.4
2017-Oct-13 08:30N 59°34' E 005°13'4 7.9
2017-Oct-13 08:00N 59°37' E 005°17'4 8.7
2017-Oct-13 07:30N 59°41' E 005°22'5 9.2
2017-Oct-13 07:00N 59°44' E 005°29'4 8.8
2017-Oct-13 06:29N 59°48' E 005°33'4 8.4
2017-Oct-13 06:00N 59°52' E 005°32'4 7.5
2017-Oct-13 05:30N 59°55' E 005°30'4 7.8
2017-Oct-13 05:00N 59°58' E 005°24'4 7.3
2017-Oct-13 04:30N 60°01' E 005°19'4 8.1
2017-Oct-13 04:00N 60°05' E 005°19'4 8.1
2017-Oct-13 03:30N 60°09' E 005°16'4 7.6
2017-Oct-13 03:00N 60°12' E 005°12'4 7.9
2017-Oct-13 02:30N 60°16' E 005°09'4 8.3
2017-Oct-13 02:00N 60°20' E 005°12'4 7.8
2017-Oct-13 01:30N 60°23' E 005°09'4 8.7
2017-Oct-13 01:00N 60°26' E 005°02'4 8.6
2017-Oct-13 00:30N 60°30' E 004°58'4 8.6
2017-Oct-13 00:00N 60°34' E 004°55'4 8.6
2017-Oct-12 23:30N 60°38' E 004°52'4 8.5
2017-Oct-12 23:00N 60°42' E 004°49'4 8.4
2017-Oct-12 22:29N 60°46' E 004°46'4 8.2
2017-Oct-12 21:59N 60°50' E 004°44'4 8.3
2017-Oct-12 21:30N 60°54' E 004°46'4 8.5
2017-Oct-12 21:00N 60°58' E 004°45'4 8.7
2017-Oct-12 20:30N 61°02' E 004°45'4 8.5
2017-Oct-12 20:01N 61°06' E 004°44'4 8.7
2017-Oct-12 19:30N 61°11' E 004°44'4 7.7
2017-Oct-12 19:00N 61°15' E 004°43'4 8.8
2017-Oct-12 18:30N 61°18' E 004°48'4 9.0
2017-Oct-12 18:00N 61°23' E 004°49'5 8.7
2017-Oct-12 17:30N 61°27' E 004°54'4 8.6
2017-Oct-12 17:00N 61°30' E 004°59'5 8.8
2017-Oct-12 16:24N 61°35' E 004°57'3 7.6
2017-Oct-12 16:00N 61°37' E 005°02'1 1.6
2017-Oct-12 15:25N 61°37' E 005°04'0 0.0
2017-Oct-12 14:55N 61°37' E 005°04'0 0.0
2017-Oct-12 14:28N 61°37' E 005°04'0 0.0
2017-Oct-12 13:58N 61°37' E 005°04'0 0.0
2017-Oct-12 13:22N 61°37' E 005°04'0 0.0
2017-Oct-12 12:58N 61°37' E 005°04'0 0.0
2017-Oct-12 12:28N 61°37' E 005°04'0 0.1
2017-Oct-12 11:59N 61°37' E 005°04'2 3.6
2017-Oct-12 11:31N 61°38' E 005°01'2 4.3
2017-Oct-12 11:00N 61°36' E 004°58'2 4.9
2017-Oct-12 10:30N 61°34' E 004°59'4 8.4
2017-Oct-12 10:00N 61°29' E 004°59'510.4
2017-Oct-12 09:30N 61°24' E 004°59'510.6
2017-Oct-12 09:00N 61°19' E 005°04'4 9.0
2017-Oct-12 08:30N 61°17' E 004°56'4 8.7
2017-Oct-12 08:00N 61°13' E 004°59'5 9.8
2017-Oct-12 07:30N 61°08' E 005°02'5 9.5
2017-Oct-12 07:00N 61°04' E 004°58'5 9.9
2017-Oct-12 06:30N 61°01' E 004°50'4 8.8
2017-Oct-12 06:00N 60°57' E 004°45'5 9.8
2017-Oct-12 05:30N 60°52' E 004°47'5 9.1
2017-Oct-12 05:00N 60°47' E 004°45'3 6.7
2017-Oct-12 04:30N 60°44' E 004°44'3 6.2
2017-Oct-12 04:00N 60°42' E 004°40'5 9.4
2017-Oct-12 03:30N 60°37' E 004°42'510.1
2017-Oct-12 03:00N 60°32' E 004°45'510.6
2017-Oct-12 02:30N 60°27' E 004°49'5 9.4
2017-Oct-12 02:00N 60°24' E 004°55'2 3.2
2017-Oct-12 01:30N 60°23' E 004°58'0 0.0
2017-Oct-12 01:00N 60°23' E 004°58'0 0.0
2017-Oct-12 00:30N 60°23' E 004°58'0 0.0
2017-Oct-12 00:00N 60°23' E 004°58'0 0.0
2017-Oct-11 23:30N 60°23' E 004°58'0 0.0
2017-Oct-11 23:00N 60°23' E 004°58'0 0.0
2017-Oct-11 22:30N 60°23' E 004°58'0 0.0
2017-Oct-11 22:00N 60°23' E 004°58'0 0.0
2017-Oct-11 21:30N 60°23' E 004°58'0 0.0
2017-Oct-11 21:00N 60°23' E 004°58'0 0.0
2017-Oct-11 20:30N 60°23' E 004°58'0 0.0
2017-Oct-11 20:00N 60°23' E 004°58'0 0.0
2017-Oct-11 19:30N 60°23' E 004°58'0 0.0
2017-Oct-11 19:00N 60°23' E 004°58'0 0.0
2017-Oct-11 18:30N 60°23' E 004°58'0 0.0
2017-Oct-11 18:00N 60°23' E 004°58'0 0.0
2017-Oct-11 17:30N 60°23' E 004°58'0 0.0
2017-Oct-11 16:57N 60°23' E 004°58'90 5.3
2017-Oct-11 00:00N 58°55' E 005°36'0 0.0
2017-Oct-10 23:30N 58°55' E 005°36'0 0.0
2017-Oct-10 23:00N 58°55' E 005°36'0 0.0
2017-Oct-10 22:30N 58°55' E 005°36'0 0.0
2017-Oct-10 22:00N 58°55' E 005°36'0 0.0
2017-Oct-10 21:30N 58°55' E 005°36'0 0.0
2017-Oct-10 21:00N 58°55' E 005°36'0 0.0
2017-Oct-10 20:30N 58°55' E 005°36'0 0.0
2017-Oct-10 20:00N 58°55' E 005°36'0 0.0
2017-Oct-10 19:30N 58°55' E 005°36'0 0.0
2017-Oct-10 19:00N 58°55' E 005°36'0 0.0
2017-Oct-10 18:30N 58°55' E 005°36'0 0.0
2017-Oct-10 18:00N 58°55' E 005°36'0 0.0
2017-Oct-10 17:30N 58°55' E 005°36'0 0.0
2017-Oct-10 17:00N 58°55' E 005°36'0 0.0
2017-Oct-10 16:30N 58°55' E 005°36'0 0.0
2017-Oct-10 16:00N 58°55' E 005°36'0 0.0
2017-Oct-10 15:30N 58°55' E 005°36'0 0.0
2017-Oct-10 15:00N 58°55' E 005°36'0 0.0
2017-Oct-10 14:00N 58°55' E 005°36'0 0.0
2017-Oct-10 13:30N 58°55' E 005°36'0 0.0
2017-Oct-10 13:00N 58°55' E 005°36'0 0.0
2017-Oct-10 12:30N 58°55' E 005°36'0 0.0
2017-Oct-10 12:00N 58°55' E 005°36'0 0.5
2017-Oct-10 11:31N 58°56' E 005°35'0 0.8
2017-Oct-10 11:00N 58°55' E 005°35'0 0.0
2017-Oct-10 10:30N 58°55' E 005°35'0 0.0
2017-Oct-10 10:00N 58°55' E 005°35'0 0.0
2017-Oct-10 09:30N 58°55' E 005°35'0 0.0
2017-Oct-10 09:00N 58°55' E 005°35'0 0.0
2017-Oct-10 08:30N 58°55' E 005°35'0 0.0
2017-Oct-10 08:00N 58°55' E 005°35'0 0.0
2017-Oct-10 07:30N 58°55' E 005°35'0 0.0
2017-Oct-10 07:00N 58°55' E 005°35'0 0.0
2017-Oct-10 06:30N 58°55' E 005°35'0 0.0
2017-Oct-10 06:00N 58°55' E 005°35'0 0.0
2017-Oct-10 05:30N 58°55' E 005°35'0 0.0
2017-Oct-10 05:00N 58°55' E 005°35'0 0.0
2017-Oct-10 04:30N 58°55' E 005°35'0 0.0
2017-Oct-10 04:00N 58°55' E 005°35'0 0.0
2017-Oct-10 03:30N 58°55' E 005°35'0 0.0
2017-Oct-10 03:00N 58°55' E 005°35'0 0.0
2017-Oct-10 02:30N 58°55' E 005°35'0 0.0
2017-Oct-10 02:00N 58°55' E 005°35'0 0.0
2017-Oct-10 01:30N 58°55' E 005°35'0 0.0
2017-Oct-10 01:00N 58°55' E 005°35'0 0.0
2017-Oct-10 00:30N 58°55' E 005°35'0 0.0
2017-Oct-10 00:00N 58°55' E 005°35'0 0.0
2017-Oct-09 23:30N 58°55' E 005°35'0 0.0
2017-Oct-09 23:00N 58°55' E 005°35'0 0.0
2017-Oct-09 22:30N 58°55' E 005°35'0 0.0
2017-Oct-09 22:00N 58°55' E 005°35'0 0.0
2017-Oct-09 21:30N 58°55' E 005°35'0 0.0
2017-Oct-09 21:00N 58°55' E 005°35'0 0.0
2017-Oct-09 20:30N 58°55' E 005°35'1 1.4
2017-Oct-09 20:00N 58°56' E 005°34'4 8.4
2017-Oct-09 19:30N 58°60' E 005°33'3 6.4
2017-Oct-09 19:00N 59°02' E 005°38'2 3.9
2017-Oct-09 18:28N 58°60' E 005°40'0 0.0
2017-Oct-09 17:58N 58°60' E 005°40'0 0.0
2017-Oct-09 17:28N 58°60' E 005°40'0 0.0
2017-Oct-09 16:58N 58°60' E 005°40'0 0.0
2017-Oct-09 16:28N 58°60' E 005°40'0 0.0
2017-Oct-09 15:58N 58°60' E 005°40'0 0.0
2017-Oct-09 15:28N 58°60' E 005°40'0 0.0
2017-Oct-09 14:58N 58°60' E 005°40'0 0.0
2017-Oct-09 14:28N 58°60' E 005°40'0 0.0
2017-Oct-09 13:58N 58°60' E 005°40'1 1.2
2017-Oct-09 13:31N 59°01' E 005°40'4 8.7
2017-Oct-09 13:00N 59°04' E 005°34'3 6.3
2017-Oct-09 12:30N 59°06' E 005°30'3 6.9
2017-Oct-09 12:00N 59°08' E 005°24'3 5.7
2017-Oct-09 11:30N 59°10' E 005°21'3 5.8
2017-Oct-09 11:00N 59°13' E 005°20'3 6.2
2017-Oct-09 10:30N 59°16' E 005°20'3 5.3
2017-Oct-09 09:58N 59°19' E 005°19'0 0.0
2017-Oct-09 09:28N 59°19' E 005°19'0 0.0
2017-Oct-09 08:58N 59°19' E 005°19'0 0.0
2017-Oct-09 08:28N 59°19' E 005°19'0 0.0
2017-Oct-09 07:58N 59°19' E 005°19'0 0.0
2017-Oct-09 07:28N 59°19' E 005°19'0 0.0
2017-Oct-09 06:58N 59°19' E 005°19'0 0.0
2017-Oct-09 06:28N 59°19' E 005°19'0 0.0
2017-Oct-09 05:58N 59°19' E 005°19'0 0.0
2017-Oct-09 05:28N 59°19' E 005°19'0 0.0
2017-Oct-09 04:58N 59°19' E 005°19'1 1.7
2017-Oct-09 04:30N 59°18' E 005°20'1 2.0
2017-Oct-09 03:59N 59°17' E 005°19'0 0.0
2017-Oct-09 03:29N 59°17' E 005°19'0 0.0
2017-Oct-09 02:59N 59°17' E 005°19'0 0.0
2017-Oct-09 02:29N 59°17' E 005°19'0 0.0
2017-Oct-09 01:59N 59°17' E 005°19'0 0.0
2017-Oct-09 01:29N 59°17' E 005°19'0 0.0
2017-Oct-09 00:59N 59°17' E 005°19'0 0.0
2017-Oct-09 00:29N 59°17' E 005°19'0 0.0
2017-Oct-08 23:59N 59°17' E 005°19'0 0.0
2017-Oct-08 23:29N 59°17' E 005°19'0 0.0
2017-Oct-08 22:59N 59°17' E 005°19'0 0.0
2017-Oct-08 22:29N 59°17' E 005°19'0 0.0
2017-Oct-08 21:59N 59°17' E 005°19'0 0.0
2017-Oct-08 21:29N 59°17' E 005°19'0 0.0
2017-Oct-08 20:59N 59°17' E 005°19'0 0.0
2017-Oct-08 20:29N 59°17' E 005°19'0 0.0
2017-Oct-08 19:59N 59°17' E 005°19'0 0.0
2017-Oct-08 19:29N 59°17' E 005°19'0 0.0
2017-Oct-08 18:59N 59°17' E 005°19'0 0.0
2017-Oct-08 18:29N 59°17' E 005°19'0 0.0
2017-Oct-08 17:59N 59°17' E 005°19'0 0.0
2017-Oct-08 17:29N 59°17' E 005°19'0 0.0
2017-Oct-08 16:59N 59°17' E 005°19'0 0.0
2017-Oct-08 16:29N 59°17' E 005°19'0 0.0
2017-Oct-08 15:59N 59°17' E 005°19'0 0.0
2017-Oct-08 15:29N 59°17' E 005°19'0 0.0
2017-Oct-08 14:59N 59°17' E 005°19'0 0.0
2017-Oct-08 14:29N 59°17' E 005°19'0 0.0
2017-Oct-08 13:59N 59°17' E 005°19'0 0.0
2017-Oct-08 13:29N 59°17' E 005°19'0 0.0
2017-Oct-08 12:59N 59°17' E 005°19'0 0.0
2017-Oct-08 12:29N 59°17' E 005°19'0 0.0
2017-Oct-08 11:59N 59°17' E 005°19'0 0.0
2017-Oct-08 11:29N 59°17' E 005°19'0 0.0
2017-Oct-08 10:59N 59°17' E 005°19'0 0.0
2017-Oct-08 10:29N 59°17' E 005°19'0 0.0
2017-Oct-08 09:59N 59°17' E 005°19'0 0.0
2017-Oct-08 09:29N 59°17' E 005°19'0 0.0
2017-Oct-08 08:59N 59°17' E 005°19'0 0.0
2017-Oct-08 08:29N 59°17' E 005°19'0 0.0
2017-Oct-08 07:59N 59°17' E 005°19'0 0.0
2017-Oct-08 07:29N 59°17' E 005°19'0 0.0
2017-Oct-08 06:59N 59°17' E 005°19'0 0.0
2017-Oct-08 06:29N 59°17' E 005°19'0 0.0
2017-Oct-08 05:59N 59°17' E 005°19'0 0.0
2017-Oct-08 05:29N 59°17' E 005°19'0 0.0
2017-Oct-08 04:59N 59°17' E 005°19'0 0.0
2017-Oct-08 04:29N 59°17' E 005°19'0 0.0
2017-Oct-08 03:59N 59°17' E 005°19'0 0.0
2017-Oct-08 03:29N 59°17' E 005°19'0 0.0
2017-Oct-08 02:59N 59°17' E 005°19'0 0.0
2017-Oct-08 02:29N 59°17' E 005°19'0 0.0
2017-Oct-08 01:59N 59°17' E 005°19'0 0.0
2017-Oct-08 01:29N 59°17' E 005°19'0 0.0
2017-Oct-08 00:59N 59°17' E 005°19'0 0.0
2017-Oct-08 00:29N 59°17' E 005°19'0 0.0
2017-Oct-07 23:59N 59°17' E 005°19'0 0.2
2017-Oct-07 23:29N 59°17' E 005°19'3 6.3
2017-Oct-07 23:00N 59°14' E 005°21'5 9.5
2017-Oct-07 22:30N 59°09' E 005°22'510.7
2017-Oct-07 22:00N 59°06' E 005°30'4 9.0
2017-Oct-07 21:31N 59°02' E 005°33'5 9.9
2017-Oct-07 21:00N 58°57' E 005°33'2 4.4
2017-Oct-07 20:30N 58°55' E 005°36'0 0.0
2017-Oct-07 20:00N 58°55' E 005°36'0 0.0
2017-Oct-07 19:30N 58°55' E 005°36'0 0.0
2017-Oct-07 19:00N 58°55' E 005°36'0 0.0
2017-Oct-07 18:30N 58°55' E 005°36'0 0.0
2017-Oct-07 18:00N 58°55' E 005°36'0 0.0
2017-Oct-07 17:30N 58°55' E 005°36'0 0.0
2017-Oct-07 17:00N 58°55' E 005°36'0 0.0
2017-Oct-07 16:30N 58°55' E 005°36'3 5.9
2017-Oct-07 16:01N 58°58' E 005°33'5 9.3
2017-Oct-07 15:31N 59°03' E 005°32'4 8.6
2017-Oct-07 15:00N 59°07' E 005°29'5 9.3
2017-Oct-07 14:31N 59°09' E 005°21'5 9.6
2017-Oct-07 14:01N 59°14' E 005°20'5 9.6
2017-Oct-07 13:30N 59°19' E 005°20'0 0.3
2017-Oct-07 13:00N 59°19' E 005°19'0 0.0
2017-Oct-07 12:30N 59°19' E 005°19'0 0.0
2017-Oct-07 12:00N 59°19' E 005°19'0 0.0
2017-Oct-07 11:30N 59°19' E 005°19'0 0.0
2017-Oct-07 11:00N 59°19' E 005°19'0 0.0
2017-Oct-07 10:30N 59°19' E 005°19'0 0.0
2017-Oct-07 10:00N 59°19' E 005°19'0 0.0
2017-Oct-07 09:30N 59°19' E 005°19'0 0.0
2017-Oct-07 09:00N 59°19' E 005°19'0 0.0
2017-Oct-07 08:30N 59°19' E 005°19'3 5.7
2017-Oct-07 08:00N 59°16' E 005°20'510.5
2017-Oct-07 07:30N 59°11' E 005°21'510.1
2017-Oct-07 07:01N 59°07' E 005°28'510.5
2017-Oct-07 06:30N 59°03' E 005°35'510.2
2017-Oct-07 06:01N 59°02' E 005°45'4 8.4
2017-Oct-07 05:30N 58°58' E 005°48'5 9.8
2017-Oct-07 05:00N 58°53' E 005°45'0 0.0
2017-Oct-07 04:30N 58°53' E 005°45'0 0.0
2017-Oct-07 04:00N 58°53' E 005°45'0 0.0
2017-Oct-07 03:30N 58°53' E 005°45'0 0.0
2017-Oct-07 03:00N 58°53' E 005°45'0 0.0
2017-Oct-07 02:30N 58°53' E 005°45'  
Track history (hours):
 
Tides and Currents Weather Stations Pressure Air Temp Water Temp Dewpoint Dewpoint Depression Visibility Wind Speed Wind Dir Waves Ship Positions

Dart

Last reported at 2017-Oct-17 02:00 UTC. Time now 2017-Oct-17 02:11 UTC.
Position N 62°44' E 006°31'.

Length 66 m; draft 4.5 m.

Type: Tanker. MMSI: 219416000.

Date/timePositionNaut miles runAvg speedWind from/ knotsBaromVisibWave heightAir tempDewpointWater temp
2017-Oct-17 02:00N 62°44' E 006°31'5 9.4
2017-Oct-17 01:29N 62°39' E 006°25'4 8.7
2017-Oct-17 01:00N 62°37' E 006°18'5 9.1
2017-Oct-17 00:30N 62°34' E 006°11'5 9.1
2017-Oct-17 00:00N 62°29' E 006°07'4 8.4
2017-Oct-16 23:30N 62°25' E 006°03'5 9.8
2017-Oct-16 23:00N 62°21' E 006°08'5 9.5
2017-Oct-16 22:29N 62°17' E 006°01'510.3
2017-Oct-16 22:00N 62°13' E 005°54'5 9.9
2017-Oct-16 21:30N 62°12' E 005°45'5 9.5
2017-Oct-16 21:00N 62°11' E 005°35'4 8.4
2017-Oct-16 20:30N 62°11' E 005°26'4 7.7
2017-Oct-16 20:00N 62°12' E 005°18'4 8.3
2017-Oct-16 19:30N 62°13' E 005°09'4 8.2
2017-Oct-16 19:00N 62°10' E 005°04'4 8.8
2017-Oct-16 18:30N 62°06' E 005°06'5 9.2
2017-Oct-16 18:00N 62°01' E 005°09'5 9.5
2017-Oct-16 17:30N 61°57' E 005°08'4 8.2
2017-Oct-16 17:00N 61°53' E 005°11'3 7.1
2017-Oct-16 16:30N 61°50' E 005°15'5 9.7
2017-Oct-16 16:00N 61°47' E 005°06'5 9.8
2017-Oct-16 15:30N 61°44' E 004°58'5 9.8
2017-Oct-16 14:59N 61°39' E 004°59'5 9.2
2017-Oct-16 14:30N 61°34' E 004°58'9 9.2
2017-Oct-16 13:30N 61°25' E 004°58'5 9.8
2017-Oct-16 13:00N 61°21' E 005°02'4 7.1
2017-Oct-16 12:30N 61°18' E 004°59'4 7.6
2017-Oct-16 12:00N 61°14' E 004°56'5 9.4
2017-Oct-16 11:30N 61°10' E 005°01'5 9.4
2017-Oct-16 11:00N 61°05' E 005°01'510.1
2017-Oct-16 10:30N 61°01' E 004°55'5 9.9
2017-Oct-16 10:00N 60°56' E 004°57'5 9.1
2017-Oct-16 09:30N 60°52' E 004°57'5 9.3
2017-Oct-16 09:00N 60°49' E 005°05'1 2.1
2017-Oct-16 08:28N 60°47' E 005°04'0 0.0
2017-Oct-16 07:58N 60°47' E 005°04'0 0.0
2017-Oct-16 07:28N 60°47' E 005°04'0 0.0
2017-Oct-16 06:58N 60°47' E 005°04'0 0.0
2017-Oct-16 06:28N 60°47' E 005°04'0 0.0
2017-Oct-16 05:58N 60°47' E 005°04'0 0.0
2017-Oct-16 05:28N 60°47' E 005°04'2 3.8
2017-Oct-16 04:59N 60°49' E 005°04'5 9.5
2017-Oct-16 04:30N 60°51' E 004°54'5 9.3
2017-Oct-16 04:00N 60°50' E 004°45'4 8.3
2017-Oct-16 03:30N 60°46' E 004°47'5 9.1
2017-Oct-16 03:00N 60°42' E 004°50'5 9.1
2017-Oct-16 02:30N 60°37' E 004°53'4 8.9
2017-Oct-16 02:00N 60°33' E 004°56'4 8.4
2017-Oct-16 01:29N 60°29' E 004°59'4 8.4
2017-Oct-16 01:00N 60°26' E 005°03'4 7.9
2017-Oct-16 00:30N 60°23' E 005°10'4 8.3
2017-Oct-16 00:00N 60°19' E 005°12'4 8.4
2017-Oct-15 23:30N 60°15' E 005°10'4 7.5
2017-Oct-15 23:00N 60°12' E 005°13'4 7.6
2017-Oct-15 22:30N 60°08' E 005°17'4 8.0
2017-Oct-15 22:00N 60°05' E 005°20'5 9.3
2017-Oct-15 21:31N 60°00' E 005°21'4 8.5
2017-Oct-15 21:00N 59°57' E 005°27'4 8.6
2017-Oct-15 20:30N 59°54' E 005°32'4 9.0
2017-Oct-15 20:00N 59°49' E 005°33'4 8.2
2017-Oct-15 19:30N 59°45' E 005°32'4 8.7
2017-Oct-15 19:00N 59°42' E 005°26'4 8.5
2017-Oct-15 18:30N 59°39' E 005°20'5 9.3
2017-Oct-15 18:00N 59°35' E 005°15'4 9.0
2017-Oct-15 17:30N 59°31' E 005°13'5 9.4
2017-Oct-15 17:00N 59°26' E 005°14'4 8.2
2017-Oct-15 16:30N 59°22' E 005°18'5 8.9
2017-Oct-15 16:00N 59°18' E 005°20'1 2.3
2017-Oct-15 15:29N 59°17' E 005°19'0 0.0
2017-Oct-15 14:59N 59°17' E 005°19'0 0.0
2017-Oct-15 13:59N 59°17' E 005°19'0 0.0
2017-Oct-15 13:29N 59°17' E 005°19'0 0.0
2017-Oct-15 12:59N 59°17' E 005°19'0 0.0
2017-Oct-15 12:29N 59°17' E 005°19'0 0.0
2017-Oct-15 11:59N 59°17' E 005°19'0 0.0
2017-Oct-15 11:29N 59°17' E 005°19'0 0.0
2017-Oct-15 10:59N 59°17' E 005°19'0 0.0
2017-Oct-15 10:29N 59°17' E 005°19'0 0.0
2017-Oct-15 09:59N 59°17' E 005°19'0 0.0
2017-Oct-15 09:29N 59°17' E 005°19'0 0.0
2017-Oct-15 08:59N 59°17' E 005°19'0 0.0
2017-Oct-15 08:29N 59°17' E 005°19'0 0.0
2017-Oct-15 07:59N 59°17' E 005°19'0 0.0
2017-Oct-15 07:29N 59°17' E 005°19'0 0.0
2017-Oct-15 06:59N 59°17' E 005°19'0 0.0
2017-Oct-15 06:29N 59°17' E 005°19'0 0.0
2017-Oct-15 05:59N 59°17' E 005°19'0 0.0
2017-Oct-15 05:29N 59°17' E 005°19'0 0.0
2017-Oct-15 04:59N 59°17' E 005°19'0 0.0
2017-Oct-15 04:29N 59°17' E 005°19'0 0.0
2017-Oct-15 03:59N 59°17' E 005°19'0 0.0
2017-Oct-15 03:29N 59°17' E 005°19'0 0.0
2017-Oct-15 02:59N 59°17' E 005°19'0 0.0
2017-Oct-15 02:29N 59°17' E 005°19'0 0.0
2017-Oct-15 01:59N 59°17' E 005°19'0 0.0
2017-Oct-15 01:29N 59°17' E 005°19'0 0.0
2017-Oct-15 00:59N 59°17' E 005°19'0 0.0
2017-Oct-15 00:29N 59°17' E 005°19'0 0.0
2017-Oct-14 23:59N 59°17' E 005°19'0 0.0
2017-Oct-14 23:29N 59°17' E 005°19'0 0.0
2017-Oct-14 22:59N 59°17' E 005°19'0 0.0
2017-Oct-14 22:29N 59°17' E 005°19'0 0.0
2017-Oct-14 21:59N 59°17' E 005°19'0 0.0
2017-Oct-14 21:29N 59°17' E 005°19'0 0.0
2017-Oct-14 20:59N 59°17' E 005°19'0 0.0
2017-Oct-14 20:29N 59°17' E 005°19'0 0.0
2017-Oct-14 19:59N 59°17' E 005°19'0 0.0
2017-Oct-14 19:29N 59°17' E 005°19'0 0.0
2017-Oct-14 18:59N 59°17' E 005°19'0 0.0
2017-Oct-14 18:29N 59°17' E 005°19'0 0.0
2017-Oct-14 17:59N 59°17' E 005°19'0 0.0
2017-Oct-14 17:29N 59°17' E 005°19'0 0.0
2017-Oct-14 16:59N 59°17' E 005°19'0 0.0
2017-Oct-14 16:29N 59°17' E 005°19'0 0.0
2017-Oct-14 15:59N 59°17' E 005°19'0 0.0
2017-Oct-14 15:29N 59°17' E 005°19'0 0.0
2017-Oct-14 14:59N 59°17' E 005°19'0 0.0
2017-Oct-14 14:29N 59°17' E 005°19'0 0.0
2017-Oct-14 13:59N 59°17' E 005°19'0 0.0
2017-Oct-14 13:29N 59°17' E 005°19'0 0.0
2017-Oct-14 12:59N 59°17' E 005°19'0 0.0
2017-Oct-14 12:29N 59°17' E 005°19'0 0.0
2017-Oct-14 11:59N 59°17' E 005°19'0 0.0
2017-Oct-14 11:29N 59°17' E 005°19'0 0.0
2017-Oct-14 10:59N 59°17' E 005°19'0 0.0
2017-Oct-14 10:29N 59°17' E 005°19'0 0.0
2017-Oct-14 09:59N 59°17' E 005°19'0 0.0
2017-Oct-14 09:29N 59°17' E 005°19'0 0.0
2017-Oct-14 08:59N 59°17' E 005°19'1 1.6
2017-Oct-14 08:30N 59°17' E 005°20'5 9.7
2017-Oct-14 08:00N 59°12' E 005°21'4 8.1
2017-Oct-14 07:30N 59°08' E 005°24'4 8.2
2017-Oct-14 07:00N 59°06' E 005°31'5 9.1
2017-Oct-14 06:30N 59°02' E 005°33'5 9.3
2017-Oct-14 06:00N 58°57' E 005°33'2 4.2
2017-Oct-14 05:29N 58°55' E 005°36'0 0.0
2017-Oct-14 04:59N 58°55' E 005°36'0 0.0
2017-Oct-14 04:29N 58°55' E 005°36'0 0.0
2017-Oct-14 03:59N 58°55' E 005°36'0 0.0
2017-Oct-14 03:26N 58°55' E 005°36'0 0.9
2017-Oct-14 03:00N 58°56' E 005°35'4 7.6
2017-Oct-14 02:30N 58°59' E 005°33'4 7.2
2017-Oct-14 02:00N 59°03' E 005°35'4 7.5
2017-Oct-14 01:30N 58°60' E 005°40'0 0.0
2017-Oct-14 00:58N 58°60' E 005°40'0 0.0
2017-Oct-14 00:28N 58°60' E 005°40'0 0.0
2017-Oct-13 23:58N 58°60' E 005°40'0 0.0
2017-Oct-13 23:28N 58°60' E 005°40'0 0.0
2017-Oct-13 22:58N 58°60' E 005°40'0 0.0
2017-Oct-13 22:28N 58°60' E 005°40'0 0.0
2017-Oct-13 21:58N 58°60' E 005°40'0 0.0
2017-Oct-13 21:28N 58°60' E 005°40'0 0.0
2017-Oct-13 20:58N 58°60' E 005°40'0 0.0
2017-Oct-13 20:28N 58°60' E 005°40'0 0.0
2017-Oct-13 19:58N 58°60' E 005°40'0 0.0
2017-Oct-13 19:28N 58°60' E 005°40'0 0.0
2017-Oct-13 18:58N 58°60' E 005°40'0 0.0
2017-Oct-13 18:29N 58°60' E 005°40'3 6.8
2017-Oct-13 18:00N 59°02' E 005°36'5 9.1
2017-Oct-13 17:30N 59°06' E 005°31'4 9.0
2017-Oct-13 17:01N 59°11' E 005°30'5 9.0
2017-Oct-13 16:30N 59°15' E 005°26'4 7.2
2017-Oct-13 16:00N 59°17' E 005°20'5 9.1
2017-Oct-13 15:30N 59°21' E 005°19'4 8.1
2017-Oct-13 15:00N 59°25' E 005°14'0 0.0
2017-Oct-13 14:29N 59°25' E 005°14'0 0.0
2017-Oct-13 13:59N 59°25' E 005°14'0 0.0
2017-Oct-13 13:29N 59°25' E 005°14'0 0.0
2017-Oct-13 12:59N 59°25' E 005°14'0 0.0
2017-Oct-13 12:29N 59°25' E 005°14'0 0.0
2017-Oct-13 11:59N 59°25' E 005°14'0 0.0
2017-Oct-13 11:29N 59°25' E 005°14'0 0.0
2017-Oct-13 10:59N 59°25' E 005°14'0 0.0
2017-Oct-13 10:29N 59°25' E 005°14'0 0.0
2017-Oct-13 09:59N 59°25' E 005°14'2 3.6
2017-Oct-13 09:30N 59°26' E 005°14'4 7.3
2017-Oct-13 09:00N 59°30' E 005°13'4 7.4
2017-Oct-13 08:30N 59°34' E 005°13'4 7.9
2017-Oct-13 08:00N 59°37' E 005°17'4 8.7
2017-Oct-13 07:30N 59°41' E 005°22'5 9.2
2017-Oct-13 07:00N 59°44' E 005°29'4 8.8
2017-Oct-13 06:29N 59°48' E 005°33'4 8.4
2017-Oct-13 06:00N 59°52' E 005°32'4 7.5
2017-Oct-13 05:30N 59°55' E 005°30'4 7.8
2017-Oct-13 05:00N 59°58' E 005°24'4 7.3
2017-Oct-13 04:30N 60°01' E 005°19'4 8.1
2017-Oct-13 04:00N 60°05' E 005°19'4 8.1
2017-Oct-13 03:30N 60°09' E 005°16'4 7.6
2017-Oct-13 03:00N 60°12' E 005°12'4 7.9
2017-Oct-13 02:30N 60°16' E 005°09'4 8.3
2017-Oct-13 02:00N 60°20' E 005°12'4 7.8
2017-Oct-13 01:30N 60°23' E 005°09'4 8.7
2017-Oct-13 01:00N 60°26' E 005°02'4 8.6
2017-Oct-13 00:30N 60°30' E 004°58'4 8.6
2017-Oct-13 00:00N 60°34' E 004°55'4 8.6
2017-Oct-12 23:30N 60°38' E 004°52'4 8.5
2017-Oct-12 23:00N 60°42' E 004°49'4 8.4
2017-Oct-12 22:29N 60°46' E 004°46'4 8.2
2017-Oct-12 21:59N 60°50' E 004°44'4 8.3
2017-Oct-12 21:30N 60°54' E 004°46'4 8.5
2017-Oct-12 21:00N 60°58' E 004°45'4 8.7
2017-Oct-12 20:30N 61°02' E 004°45'4 8.5
2017-Oct-12 20:01N 61°06' E 004°44'4 8.7
2017-Oct-12 19:30N 61°11' E 004°44'4 7.7
2017-Oct-12 19:00N 61°15' E 004°43'4 8.8
2017-Oct-12 18:30N 61°18' E 004°48'4 9.0
2017-Oct-12 18:00N 61°23' E 004°49'5 8.7
2017-Oct-12 17:30N 61°27' E 004°54'4 8.6
2017-Oct-12 17:00N 61°30' E 004°59'5 8.8
2017-Oct-12 16:24N 61°35' E 004°57'3 7.6
2017-Oct-12 16:00N 61°37' E 005°02'1 1.6
2017-Oct-12 15:25N 61°37' E 005°04'0 0.0
2017-Oct-12 14:55N 61°37' E 005°04'0 0.0
2017-Oct-12 14:28N 61°37' E 005°04'0 0.0
2017-Oct-12 13:58N 61°37' E 005°04'0 0.0
2017-Oct-12 13:22N 61°37' E 005°04'0 0.0
2017-Oct-12 12:58N 61°37' E 005°04'0 0.0
2017-Oct-12 12:28N 61°37' E 005°04'0 0.1
2017-Oct-12 11:59N 61°37' E 005°04'2 3.6
2017-Oct-12 11:31N 61°38' E 005°01'2 4.3
2017-Oct-12 11:00N 61°36' E 004°58'2 4.9
2017-Oct-12 10:30N 61°34' E 004°59'4 8.4
2017-Oct-12 10:00N 61°29' E 004°59'510.4
2017-Oct-12 09:30N 61°24' E 004°59'510.6
2017-Oct-12 09:00N 61°19' E 005°04'4 9.0
2017-Oct-12 08:30N 61°17' E 004°56'4 8.7
2017-Oct-12 08:00N 61°13' E 004°59'5 9.8
2017-Oct-12 07:30N 61°08' E 005°02'5 9.5
2017-Oct-12 07:00N 61°04' E 004°58'5 9.9
2017-Oct-12 06:30N 61°01' E 004°50'4 8.8
2017-Oct-12 06:00N 60°57' E 004°45'5 9.8
2017-Oct-12 05:30N 60°52' E 004°47'5 9.1
2017-Oct-12 05:00N 60°47' E 004°45'3 6.7
2017-Oct-12 04:30N 60°44' E 004°44'3 6.2
2017-Oct-12 04:00N 60°42' E 004°40'5 9.4
2017-Oct-12 03:30N 60°37' E 004°42'510.1
2017-Oct-12 03:00N 60°32' E 004°45'510.6
2017-Oct-12 02:30N 60°27' E 004°49'5 9.4
2017-Oct-12 02:00N 60°24' E 004°55'2 3.2
2017-Oct-12 01:30N 60°23' E 004°58'0 0.0
2017-Oct-12 01:00N 60°23' E 004°58'0 0.0
2017-Oct-12 00:30N 60°23' E 004°58'0 0.0
2017-Oct-12 00:00N 60°23' E 004°58'0 0.0
2017-Oct-11 23:30N 60°23' E 004°58'0 0.0
2017-Oct-11 23:00N 60°23' E 004°58'0 0.0
2017-Oct-11 22:30N 60°23' E 004°58'0 0.0
2017-Oct-11 22:00N 60°23' E 004°58'0 0.0
2017-Oct-11 21:30N 60°23' E 004°58'0 0.0
2017-Oct-11 21:00N 60°23' E 004°58'0 0.0
2017-Oct-11 20:30N 60°23' E 004°58'0 0.0
2017-Oct-11 20:00N 60°23' E 004°58'0 0.0
2017-Oct-11 19:30N 60°23' E 004°58'0 0.0
2017-Oct-11 19:00N 60°23' E 004°58'0 0.0
2017-Oct-11 18:30N 60°23' E 004°58'0 0.0
2017-Oct-11 18:00N 60°23' E 004°58'0 0.0
2017-Oct-11 17:30N 60°23' E 004°58'0 0.0
2017-Oct-11 16:57N 60°23' E 004°58'90 5.3
2017-Oct-11 00:00N 58°55' E 005°36'0 0.0
2017-Oct-10 23:30N 58°55' E 005°36'0 0.0
2017-Oct-10 23:00N 58°55' E 005°36'0 0.0
2017-Oct-10 22:30N 58°55' E 005°36'0 0.0
2017-Oct-10 22:00N 58°55' E 005°36'0 0.0
2017-Oct-10 21:30N 58°55' E 005°36'0 0.0
2017-Oct-10 21:00N 58°55' E 005°36'0 0.0
2017-Oct-10 20:30N 58°55' E 005°36'0 0.0
2017-Oct-10 20:00N 58°55' E 005°36'0 0.0
2017-Oct-10 19:30N 58°55' E 005°36'0 0.0
2017-Oct-10 19:00N 58°55' E 005°36'0 0.0
2017-Oct-10 18:30N 58°55' E 005°36'0 0.0
2017-Oct-10 18:00N 58°55' E 005°36'0 0.0
2017-Oct-10 17:30N 58°55' E 005°36'0 0.0
2017-Oct-10 17:00N 58°55' E 005°36'0 0.0
2017-Oct-10 16:30N 58°55' E 005°36'0 0.0
2017-Oct-10 16:00N 58°55' E 005°36'0 0.0
2017-Oct-10 15:30N 58°55' E 005°36'0 0.0
2017-Oct-10 15:00N 58°55' E 005°36'0 0.0
2017-Oct-10 14:00N 58°55' E 005°36'0 0.0
2017-Oct-10 13:30N 58°55' E 005°36'0 0.0
2017-Oct-10 13:00N 58°55' E 005°36'0 0.0
2017-Oct-10 12:30N 58°55' E 005°36'0 0.0
2017-Oct-10 12:00N 58°55' E 005°36'0 0.5
2017-Oct-10 11:31N 58°56' E 005°35'0 0.8
2017-Oct-10 11:00N 58°55' E 005°35'0 0.0
2017-Oct-10 10:30N 58°55' E 005°35'0 0.0
2017-Oct-10 10:00N 58°55' E 005°35'0 0.0
2017-Oct-10 09:30N 58°55' E 005°35'0 0.0
2017-Oct-10 09:00N 58°55' E 005°35'0 0.0
2017-Oct-10 08:30N 58°55' E 005°35'0 0.0
2017-Oct-10 08:00N 58°55' E 005°35'0 0.0
2017-Oct-10 07:30N 58°55' E 005°35'0 0.0
2017-Oct-10 07:00N 58°55' E 005°35'0 0.0
2017-Oct-10 06:30N 58°55' E 005°35'0 0.0
2017-Oct-10 06:00N 58°55' E 005°35'0 0.0
2017-Oct-10 05:30N 58°55' E 005°35'0 0.0
2017-Oct-10 05:00N 58°55' E 005°35'0 0.0
2017-Oct-10 04:30N 58°55' E 005°35'0 0.0
2017-Oct-10 04:00N 58°55' E 005°35'0 0.0
2017-Oct-10 03:30N 58°55' E 005°35'0 0.0
2017-Oct-10 03:00N 58°55' E 005°35'0 0.0
2017-Oct-10 02:30N 58°55' E 005°35'0 0.0
2017-Oct-10 02:00N 58°55' E 005°35'0 0.0
2017-Oct-10 01:30N 58°55' E 005°35'0 0.0
2017-Oct-10 01:00N 58°55' E 005°35'0 0.0
2017-Oct-10 00:30N 58°55' E 005°35'0 0.0
2017-Oct-10 00:00N 58°55' E 005°35'0 0.0
2017-Oct-09 23:30N 58°55' E 005°35'0 0.0
2017-Oct-09 23:00N 58°55' E 005°35'0 0.0
2017-Oct-09 22:30N 58°55' E 005°35'0 0.0
2017-Oct-09 22:00N 58°55' E 005°35'0 0.0
2017-Oct-09 21:30N 58°55' E 005°35'0 0.0
2017-Oct-09 21:00N 58°55' E 005°35'0 0.0
2017-Oct-09 20:30N 58°55' E 005°35'1 1.4
2017-Oct-09 20:00N 58°56' E 005°34'4 8.4
2017-Oct-09 19:30N 58°60' E 005°33'3 6.4
2017-Oct-09 19:00N 59°02' E 005°38'2 3.9
2017-Oct-09 18:28N 58°60' E 005°40'0 0.0
2017-Oct-09 17:58N 58°60' E 005°40'0 0.0
2017-Oct-09 17:28N 58°60' E 005°40'0 0.0
2017-Oct-09 16:58N 58°60' E 005°40'0 0.0
2017-Oct-09 16:28N 58°60' E 005°40'0 0.0
2017-Oct-09 15:58N 58°60' E 005°40'0 0.0
2017-Oct-09 15:28N 58°60' E 005°40'0 0.0
2017-Oct-09 14:58N 58°60' E 005°40'0 0.0
2017-Oct-09 14:28N 58°60' E 005°40'0 0.0
2017-Oct-09 13:58N 58°60' E 005°40'1 1.2
2017-Oct-09 13:31N 59°01' E 005°40'4 8.7
2017-Oct-09 13:00N 59°04' E 005°34'3 6.3
2017-Oct-09 12:30N 59°06' E 005°30'3 6.9
2017-Oct-09 12:00N 59°08' E 005°24'3 5.7
2017-Oct-09 11:30N 59°10' E 005°21'3 5.8
2017-Oct-09 11:00N 59°13' E 005°20'3 6.2
2017-Oct-09 10:30N 59°16' E 005°20'3 5.3
2017-Oct-09 09:58N 59°19' E 005°19'0 0.0
2017-Oct-09 09:28N 59°19' E 005°19'0 0.0
2017-Oct-09 08:58N 59°19' E 005°19'0 0.0
2017-Oct-09 08:28N 59°19' E 005°19'0 0.0
2017-Oct-09 07:58N 59°19' E 005°19'0 0.0
2017-Oct-09 07:28N 59°19' E 005°19'0 0.0
2017-Oct-09 06:58N 59°19' E 005°19'0 0.0
2017-Oct-09 06:28N 59°19' E 005°19'0 0.0
2017-Oct-09 05:58N 59°19' E 005°19'0 0.0
2017-Oct-09 05:28N 59°19' E 005°19'0 0.0
2017-Oct-09 04:58N 59°19' E 005°19'1 1.7
2017-Oct-09 04:30N 59°18' E 005°20'1 2.0
2017-Oct-09 03:59N 59°17' E 005°19'0 0.0
2017-Oct-09 03:29N 59°17' E 005°19'0 0.0
2017-Oct-09 02:59N 59°17' E 005°19'0 0.0
2017-Oct-09 02:29N 59°17' E 005°19'0 0.0
2017-Oct-09 01:59N 59°17' E 005°19'0 0.0
2017-Oct-09 01:29N 59°17' E 005°19'0 0.0
2017-Oct-09 00:59N 59°17' E 005°19'0 0.0
2017-Oct-09 00:29N 59°17' E 005°19'0 0.0
2017-Oct-08 23:59N 59°17' E 005°19'0 0.0
2017-Oct-08 23:29N 59°17' E 005°19'0 0.0
2017-Oct-08 22:59N 59°17' E 005°19'0 0.0
2017-Oct-08 22:29N 59°17' E 005°19'0 0.0
2017-Oct-08 21:59N 59°17' E 005°19'0 0.0
2017-Oct-08 21:29N 59°17' E 005°19'0 0.0
2017-Oct-08 20:59N 59°17' E 005°19'0 0.0
2017-Oct-08 20:29N 59°17' E 005°19'0 0.0
2017-Oct-08 19:59N 59°17' E 005°19'0 0.0
2017-Oct-08 19:29N 59°17' E 005°19'0 0.0
2017-Oct-08 18:59N 59°17' E 005°19'0 0.0
2017-Oct-08 18:29N 59°17' E 005°19'0 0.0
2017-Oct-08 17:59N 59°17' E 005°19'0 0.0
2017-Oct-08 17:29N 59°17' E 005°19'0 0.0
2017-Oct-08 16:59N 59°17' E 005°19'0 0.0
2017-Oct-08 16:29N 59°17' E 005°19'0 0.0
2017-Oct-08 15:59N 59°17' E 005°19'0 0.0
2017-Oct-08 15:29N 59°17' E 005°19'0 0.0
2017-Oct-08 14:59N 59°17' E 005°19'0 0.0
2017-Oct-08 14:29N 59°17' E 005°19'0 0.0
2017-Oct-08 13:59N 59°17' E 005°19'0 0.0
2017-Oct-08 13:29N 59°17' E 005°19'0 0.0
2017-Oct-08 12:59N 59°17' E 005°19'0 0.0
2017-Oct-08 12:29N 59°17' E 005°19'0 0.0
2017-Oct-08 11:59N 59°17' E 005°19'0 0.0
2017-Oct-08 11:29N 59°17' E 005°19'0 0.0
2017-Oct-08 10:59N 59°17' E 005°19'0 0.0
2017-Oct-08 10:29N 59°17' E 005°19'0 0.0
2017-Oct-08 09:59N 59°17' E 005°19'0 0.0
2017-Oct-08 09:29N 59°17' E 005°19'0 0.0
2017-Oct-08 08:59N 59°17' E 005°19'0 0.0
2017-Oct-08 08:29N 59°17' E 005°19'0 0.0
2017-Oct-08 07:59N 59°17' E 005°19'0 0.0
2017-Oct-08 07:29N 59°17' E 005°19'0 0.0
2017-Oct-08 06:59N 59°17' E 005°19'0 0.0
2017-Oct-08 06:29N 59°17' E 005°19'0 0.0
2017-Oct-08 05:59N 59°17' E 005°19'0 0.0
2017-Oct-08 05:29N 59°17' E 005°19'0 0.0
2017-Oct-08 04:59N 59°17' E 005°19'0 0.0
2017-Oct-08 04:29N 59°17' E 005°19'0 0.0
2017-Oct-08 03:59N 59°17' E 005°19'0 0.0
2017-Oct-08 03:29N 59°17' E 005°19'0 0.0
2017-Oct-08 02:59N 59°17' E 005°19'0 0.0
2017-Oct-08 02:29N 59°17' E 005°19'0 0.0
2017-Oct-08 01:59N 59°17' E 005°19'0 0.0
2017-Oct-08 01:29N 59°17' E 005°19'0 0.0
2017-Oct-08 00:59N 59°17' E 005°19'0 0.0
2017-Oct-08 00:29N 59°17' E 005°19'0 0.0
2017-Oct-07 23:59N 59°17' E 005°19'0 0.2
2017-Oct-07 23:29N 59°17' E 005°19'3 6.3
2017-Oct-07 23:00N 59°14' E 005°21'5 9.5
2017-Oct-07 22:30N 59°09' E 005°22'510.7
2017-Oct-07 22:00N 59°06' E 005°30'4 9.0
2017-Oct-07 21:31N 59°02' E 005°33'5 9.9
2017-Oct-07 21:00N 58°57' E 005°33'2 4.4
2017-Oct-07 20:30N 58°55' E 005°36'0 0.0
2017-Oct-07 20:00N 58°55' E 005°36'0 0.0
2017-Oct-07 19:30N 58°55' E 005°36'0 0.0
2017-Oct-07 19:00N 58°55' E 005°36'0 0.0
2017-Oct-07 18:30N 58°55' E 005°36'0 0.0
2017-Oct-07 18:00N 58°55' E 005°36'0 0.0
2017-Oct-07 17:30N 58°55' E 005°36'0 0.0
2017-Oct-07 17:00N 58°55' E 005°36'0 0.0
2017-Oct-07 16:30N 58°55' E 005°36'3 5.9
2017-Oct-07 16:01N 58°58' E 005°33'5 9.3
2017-Oct-07 15:31N 59°03' E 005°32'4 8.6
2017-Oct-07 15:00N 59°07' E 005°29'5 9.3
2017-Oct-07 14:31N 59°09' E 005°21'5 9.6
2017-Oct-07 14:01N 59°14' E 005°20'5 9.6
2017-Oct-07 13:30N 59°19' E 005°20'0 0.3
2017-Oct-07 13:00N 59°19' E 005°19'0 0.0
2017-Oct-07 12:30N 59°19' E 005°19'0 0.0
2017-Oct-07 12:00N 59°19' E 005°19'0 0.0
2017-Oct-07 11:30N 59°19' E 005°19'0 0.0
2017-Oct-07 11:00N 59°19' E 005°19'0 0.0
2017-Oct-07 10:30N 59°19' E 005°19'0 0.0
2017-Oct-07 10:00N 59°19' E 005°19'0 0.0
2017-Oct-07 09:30N 59°19' E 005°19'0 0.0
2017-Oct-07 09:00N 59°19' E 005°19'0 0.0
2017-Oct-07 08:30N 59°19' E 005°19'3 5.7
2017-Oct-07 08:00N 59°16' E 005°20'510.5
2017-Oct-07 07:30N 59°11' E 005°21'510.1
2017-Oct-07 07:01N 59°07' E 005°28'510.5
2017-Oct-07 06:30N 59°03' E 005°35'510.2
2017-Oct-07 06:01N 59°02' E 005°45'4 8.4
2017-Oct-07 05:30N 58°58' E 005°48'5 9.8
2017-Oct-07 05:00N 58°53' E 005°45'0 0.0
2017-Oct-07 04:30N 58°53' E 005°45'0 0.0
2017-Oct-07 04:00N 58°53' E 005°45'0 0.0
2017-Oct-07 03:30N 58°53' E 005°45'0 0.0
2017-Oct-07 03:00N 58°53' E 005°45'0 0.0
2017-Oct-07 02:30N 58°53' E 005°45'  

Dump ship's entire track history